Time;durP1;ratioP1;P1;durP2;ratioP2;P2;SDS_P1;SDS_P2;PMS_P1;PMS_P2;Temp;Humidity;BMP_temperature;BMP_pressure;BME280_temperature;BME280_humidity;BME280_pressure;Samples;Min_cycle;Max_cycle;Signal;HPM_P1;HPM_P2
2022/12/06 00:01:17;;;;;;;22.80;14.20;;;4.10;99.90;;;;;;5051258;28;20441;-66
2022/12/06 00:03:44;;;;;;;29.63;19.77;;;4.10;99.90;;;;;;5052312;28;20437;-69
2022/12/06 00:06:13;;;;;;;38.70;22.90;;;4.10;99.90;;;;;;5033265;28;20919;-67
2022/12/06 00:08:40;;;;;;;49.77;28.40;;;4.10;99.90;;;;;;5051805;28;20390;-69
2022/12/06 00:11:11;;;;;;;38.63;22.60;;;4.10;99.90;;;;;;5050607;28;20417;-69
2022/12/06 00:13:38;;;;;;;28.70;14.70;;;4.10;99.90;;;;;;5051268;28;20404;-69
2022/12/06 00:16:05;;;;;;;31.00;17.73;;;4.10;99.90;;;;;;5051698;28;20893;-69
2022/12/06 00:18:33;;;;;;;14.37;11.50;;;4.10;99.90;;;;;;5033490;28;20431;-68
2022/12/06 00:21:19;;;;;;;12.83;9.83;;;4.20;99.90;;;;;;5051318;28;20817;-71
2022/12/06 00:23:48;;;;;;;15.97;8.40;;;4.20;99.90;;;;;;5051504;28;20449;-69
2022/12/06 00:26:15;;;;;;;13.97;8.87;;;4.20;99.90;;;;;;5051296;28;20388;-69
2022/12/06 00:28:41;;;;;;;14.00;8.17;;;4.30;99.90;;;;;;5051392;28;20385;-68
2022/12/06 00:31:13;;;;;;;11.37;8.03;;;4.20;99.90;;;;;;5051002;28;20420;-69
2022/12/06 00:33:39;;;;;;;10.00;6.87;;;4.20;99.90;;;;;;5050879;28;20490;-71
2022/12/06 00:36:09;;;;;;;20.43;10.07;;;4.10;99.90;;;;;;5051200;28;21109;-70
2022/12/06 00:38:35;;;;;;;8.30;7.50;;;4.10;99.90;;;;;;5051333;28;20608;-70
2022/12/06 00:41:05;;;;;;;11.80;8.17;;;4.10;99.90;;;;;;5051126;28;20434;-71
2022/12/06 00:43:32;;;;;;;8.43;6.20;;;4.00;99.90;;;;;;5050657;28;20514;-68
2022/12/06 00:45:58;;;;;;;11.17;7.07;;;4.00;99.90;;;;;;5051015;28;20387;-70
2022/12/06 00:48:23;;;;;;;11.00;6.87;;;4.10;99.90;;;;;;5050510;28;20415;-70
2022/12/06 00:50:49;;;;;;;10.97;7.13;;;4.00;99.90;;;;;;5050674;28;21094;-70
2022/12/06 00:53:15;;;;;;;9.90;7.60;;;4.10;99.90;;;;;;5050116;28;20291;-70
2022/12/06 00:55:42;;;;;;;7.63;6.37;;;4.00;99.90;;;;;;5050891;28;20464;-71
2022/12/06 00:58:08;;;;;;;7.90;6.87;;;3.90;99.90;;;;;;5050847;28;20263;-68
2022/12/06 01:00:34;;;;;;;7.90;6.80;;;4.00;99.90;;;;;;5050223;28;20497;-70
2022/12/06 01:03:00;;;;;;;8.23;5.67;;;3.90;99.90;;;;;;5049949;28;20192;-70
2022/12/06 01:05:25;;;;;;;11.63;6.63;;;3.90;99.90;;;;;;5050481;28;20235;-69
2022/12/06 01:07:51;;;;;;;9.13;6.43;;;3.90;99.90;;;;;;5049676;28;20262;-68
2022/12/06 01:10:17;;;;;;;10.10;6.20;;;3.90;99.90;;;;;;5050495;28;20236;-69
2022/12/06 01:12:42;;;;;;;10.37;6.57;;;3.80;99.90;;;;;;5049392;28;20238;-70
2022/12/06 01:15:08;;;;;;;7.97;6.97;;;3.80;99.90;;;;;;5050428;28;20632;-70
2022/12/06 01:17:35;;;;;;;8.60;6.60;;;3.80;99.90;;;;;;5050355;28;20191;-70
2022/12/06 01:20:00;;;;;;;8.03;6.20;;;3.80;99.90;;;;;;5050467;28;20397;-69
2022/12/06 01:22:26;;;;;;;8.80;6.80;;;3.80;99.90;;;;;;5049657;28;20961;-69
2022/12/06 01:24:52;;;;;;;8.10;5.93;;;3.80;99.90;;;;;;5031753;28;20672;-69
2022/12/06 01:27:17;;;;;;;9.30;6.70;;;3.80;99.90;;;;;;5050313;28;20170;-69
2022/12/06 01:29:43;;;;;;;9.00;6.20;;;3.80;99.90;;;;;;5050264;28;20172;-70
2022/12/06 01:32:08;;;;;;;12.27;7.10;;;3.80;99.90;;;;;;5049007;28;20207;-69
2022/12/06 01:34:34;;;;;;;7.83;6.03;;;3.80;99.90;;;;;;5050178;28;20180;-69
2022/12/06 01:37:00;;;;;;;6.63;5.90;;;3.80;99.90;;;;;;5050277;28;20171;-69
2022/12/06 01:39:25;;;;;;;7.67;6.00;;;3.80;99.90;;;;;;5049985;28;20176;-71
2022/12/06 01:41:51;;;;;;;7.70;6.43;;;3.80;99.90;;;;;;5049353;28;20210;-67
2022/12/06 01:44:43;;;;;;;6.53;5.57;;;3.80;99.90;;;;;;5049236;28;20209;-69
2022/12/06 01:47:18;;;;;;;5.67;5.03;;;3.80;99.90;;;;;;5050161;28;20179;-69
2022/12/06 01:49:49;;;;;;;8.93;6.30;;;3.80;99.90;;;;;;5049954;28;20393;-69
2022/12/06 01:52:16;;;;;;;6.87;5.90;;;3.70;99.90;;;;;;5048835;28;20897;-69
2022/12/06 01:54:42;;;;;;;8.97;6.40;;;3.70;99.90;;;;;;5050009;28;20405;-69
2022/12/06 01:57:10;;;;;;;7.70;5.77;;;3.70;99.90;;;;;;5049976;28;20983;-68
2022/12/06 01:59:36;;;;;;;9.00;6.40;;;3.70;99.90;;;;;;5050046;28;20254;-69
2022/12/06 03:32:43;;;;;;;9.40;6.97;;;4.00;99.90;;;;;;5182545;22;20593;-70
2022/12/06 03:35:12;;;;;;;9.70;6.57;;;4.00;99.90;;;;;;5005784;28;20424;-71
2022/12/06 03:37:41;;;;;;;9.23;6.33;;;3.90;99.90;;;;;;5012367;28;20418;-71
2022/12/06 03:40:22;;;;;;;15.90;7.23;;;3.90;99.90;;;;;;5012269;28;20410;-71
2022/12/06 03:42:49;;;;;;;8.53;6.23;;;3.90;99.90;;;;;;5002467;28;20527;-70
2022/12/06 03:45:15;;;;;;;10.07;7.07;;;3.90;99.90;;;;;;5012200;28;20446;-70
2022/12/06 03:48:01;;;;;;;8.80;6.90;;;3.90;99.90;;;;;;5009650;28;20871;-72
2022/12/06 03:51:00;;;;;;;10.83;6.70;;;3.90;99.90;;;;;;5009107;28;20589;-68
2022/12/06 03:53:25;;;;;;;8.47;7.63;;;4.00;99.90;;;;;;5007726;28;20942;-71
2022/12/06 03:55:51;;;;;;;17.70;8.00;;;4.10;99.90;;;;;;5011332;28;20528;-70
2022/12/06 03:58:16;;;;;;;11.13;7.13;;;4.10;99.90;;;;;;5012287;28;20190;-71
2022/12/06 04:00:42;;;;;;;14.03;7.40;;;4.00;99.90;;;;;;5011995;28;20515;-71
2022/12/06 04:03:07;;;;;;;12.60;7.73;;;4.00;99.90;;;;;;5010518;28;20178;-71
2022/12/06 04:05:33;;;;;;;14.60;9.10;;;4.00;99.90;;;;;;5012364;28;20204;-71
2022/12/06 04:07:58;;;;;;;12.23;7.93;;;4.00;99.90;;;;;;5011539;28;20202;-71
2022/12/06 04:10:24;;;;;;;11.03;7.60;;;4.00;99.90;;;;;;5011991;28;20269;-71
2022/12/06 04:13:04;;;;;;;9.87;7.87;;;4.00;99.90;;;;;;5010990;28;20268;-68
2022/12/06 04:15:33;;;;;;;9.50;7.10;;;3.90;99.90;;;;;;5011838;28;20196;-71
2022/12/06 04:18:14;;;;;;;11.43;7.27;;;3.90;99.90;;;;;;5011496;28;20412;-71
2022/12/06 04:23:24;;;;;;;8.07;7.27;;;4.00;99.90;;;;;;5011081;28;20423;-71
2022/12/06 04:25:50;;;;;;;12.97;8.37;;;3.90;99.90;;;;;;5011387;28;20463;-69
2022/12/06 04:39:12;;;;;;;8.63;7.60;;;3.90;99.90;;;;;;5011147;28;20452;-71
2022/12/06 04:44:22;;;;;;;10.13;7.43;;;3.90;99.90;;;;;;5011040;28;20259;-72
2022/12/06 04:46:47;;;;;;;12.23;7.77;;;3.90;99.90;;;;;;5011406;28;20435;-72
2022/12/06 04:49:13;;;;;;;9.53;7.47;;;4.00;99.90;;;;;;5011123;28;20207;-73
2022/12/06 04:51:38;;;;;;;11.73;7.80;;;4.00;99.90;;;;;;5011140;28;20198;-70
2022/12/06 04:54:04;;;;;;;10.93;7.90;;;4.10;99.90;;;;;;4998554;28;20194;-72
2022/12/06 04:56:30;;;;;;;12.80;9.10;;;4.00;99.90;;;;;;4991566;28;20189;-69
2022/12/06 04:58:56;;;;;;;13.60;9.50;;;4.00;99.90;;;;;;4991310;28;20178;-71
2022/12/06 05:01:21;;;;;;;9.73;8.50;;;4.00;99.90;;;;;;4991262;28;20244;-72
2022/12/06 05:03:47;;;;;;;14.03;9.50;;;4.00;99.90;;;;;;4990363;28;20578;-72
2022/12/06 05:06:12;;;;;;;11.23;9.03;;;4.00;99.90;;;;;;4991088;28;20603;-72
2022/12/06 05:08:38;;;;;;;12.50;8.13;;;4.00;99.90;;;;;;4991337;28;20223;-71
2022/12/06 05:11:04;;;;;;;12.50;9.30;;;4.10;99.90;;;;;;4990905;28;20249;-70
2022/12/06 05:13:29;;;;;;;12.57;9.20;;;4.10;99.90;;;;;;4990558;28;20179;-70
2022/12/06 05:15:58;;;;;;;12.10;9.10;;;4.10;99.90;;;;;;4990586;28;20197;-72
2022/12/06 05:18:24;;;;;;;13.00;8.97;;;4.10;99.90;;;;;;4991267;28;20647;-70
2022/12/06 05:20:50;;;;;;;15.17;8.90;;;4.10;99.90;;;;;;4990755;28;20387;-69
2022/12/06 05:23:16;;;;;;;12.10;9.07;;;4.10;99.90;;;;;;4990467;28;20418;-72
2022/12/06 05:25:42;;;;;;;15.13;9.67;;;4.10;99.90;;;;;;4991316;28;20923;-71
2022/12/06 05:28:08;;;;;;;11.83;8.50;;;4.10;99.90;;;;;;4990627;28;20182;-72
2022/12/06 05:30:34;;;;;;;13.20;8.43;;;4.10;99.90;;;;;;4991016;28;20398;-70
2022/12/06 05:32:59;;;;;;;10.60;8.20;;;4.10;99.90;;;;;;4990075;28;20407;-72
2022/12/06 05:35:25;;;;;;;11.67;8.33;;;4.10;99.90;;;;;;4991058;28;20907;-71
2022/12/06 05:37:50;;;;;;;10.20;9.13;;;4.10;99.90;;;;;;4990699;28;20186;-70
2022/12/06 05:40:16;;;;;;;12.57;8.80;;;4.10;99.90;;;;;;4986998;28;20201;-72
2022/12/06 05:42:42;;;;;;;12.27;8.07;;;4.20;99.90;;;;;;4990752;28;20559;-72
2022/12/06 05:45:08;;;;;;;11.00;8.47;;;4.20;99.90;;;;;;4991138;28;20243;-72
2022/12/06 05:47:34;;;;;;;13.50;9.53;;;4.30;99.90;;;;;;4990408;28;20183;-71
2022/12/06 05:50:00;;;;;;;11.60;8.83;;;4.20;99.90;;;;;;4990522;28;20477;-70
2022/12/06 05:52:25;;;;;;;12.83;9.67;;;4.20;99.90;;;;;;4990329;28;20488;-72
2022/12/06 05:54:51;;;;;;;13.27;10.27;;;4.20;99.90;;;;;;4993430;28;20558;-72
2022/12/06 05:57:16;;;;;;;10.17;7.77;;;4.20;99.90;;;;;;5003443;28;20666;-71
2022/12/06 05:59:42;;;;;;;17.03;8.60;;;4.20;99.90;;;;;;5013601;28;20192;-72
2022/12/06 06:02:07;;;;;;;13.73;8.73;;;4.10;99.90;;;;;;5013387;28;20210;-72
2022/12/06 06:04:33;;;;;;;13.80;8.20;;;4.10;99.90;;;;;;5013594;28;20206;-72
2022/12/06 06:06:58;;;;;;;11.97;9.00;;;4.10;99.90;;;;;;5014216;28;20171;-73
2022/12/06 06:09:26;;;;;;;9.50;8.23;;;4.20;99.90;;;;;;5010371;28;20193;-69
2022/12/06 06:11:52;;;;;;;12.50;9.80;;;4.20;99.90;;;;;;5008735;28;20205;-72
2022/12/06 06:14:18;;;;;;;14.83;10.40;;;4.20;99.90;;;;;;5009714;28;20459;-72
2022/12/06 06:16:44;;;;;;;10.33;7.90;;;4.20;99.90;;;;;;5015231;28;20441;-72
2022/12/06 06:19:10;;;;;;;12.63;8.83;;;4.20;99.90;;;;;;5033050;28;20181;-72
2022/12/06 06:21:35;;;;;;;16.43;10.53;;;4.30;99.90;;;;;;5033548;28;20635;-69
2022/12/06 06:24:01;;;;;;;14.00;9.67;;;4.30;99.90;;;;;;5032191;28;20217;-72
2022/12/06 06:26:26;;;;;;;12.70;9.67;;;4.30;99.90;;;;;;5032552;28;20398;-71
2022/12/06 06:28:52;;;;;;;15.40;11.07;;;4.30;99.90;;;;;;5015839;28;20264;-71
2022/12/06 06:31:17;;;;;;;11.93;9.33;;;4.30;99.90;;;;;;5033399;28;20645;-72
2022/12/06 06:33:43;;;;;;;12.30;9.43;;;4.40;99.90;;;;;;5033092;28;20200;-71
2022/12/06 06:36:09;;;;;;;10.50;9.40;;;4.40;99.90;;;;;;5033369;28;20191;-71
2022/12/06 06:38:34;;;;;;;11.43;8.47;;;4.40;99.90;;;;;;5033058;28;20640;-72
2022/12/06 06:41:02;;;;;;;16.20;9.43;;;4.40;99.90;;;;;;5033101;28;20407;-72
2022/12/06 06:43:29;;;;;;;12.30;10.53;;;4.40;99.90;;;;;;5032545;28;20185;-72
2022/12/06 06:45:56;;;;;;;11.97;10.03;;;4.40;99.90;;;;;;5032754;28;20444;-71
2022/12/06 06:48:23;;;;;;;13.97;9.90;;;4.40;99.90;;;;;;5033147;28;20507;-70
2022/12/06 06:50:49;;;;;;;11.07;8.97;;;4.40;99.90;;;;;;5032803;28;20808;-70
2022/12/06 06:53:15;;;;;;;13.53;10.73;;;4.40;99.90;;;;;;5032556;28;20388;-70
2022/12/06 06:55:45;;;;;;;16.17;9.27;;;4.40;99.90;;;;;;5033209;28;20415;-70
2022/12/06 06:58:13;;;;;;;11.90;9.10;;;4.40;99.90;;;;;;5014862;28;20607;-70
2022/12/06 07:00:40;;;;;;;14.27;10.30;;;4.50;99.90;;;;;;5033543;28;20823;-68
2022/12/06 07:03:06;;;;;;;12.90;9.93;;;4.40;99.90;;;;;;5032780;28;20395;-70
2022/12/06 07:05:31;;;;;;;13.73;9.93;;;4.40;99.90;;;;;;5031742;28;20792;-71
2022/12/06 07:07:57;;;;;;;18.90;10.63;;;4.40;99.90;;;;;;5033041;28;20186;-71
2022/12/06 07:10:26;;;;;;;15.67;10.77;;;4.40;99.90;;;;;;5032939;28;20195;-70
2022/12/06 07:12:55;;;;;;;16.17;11.40;;;4.40;99.90;;;;;;5031571;28;20207;-71
2022/12/06 07:15:21;;;;;;;25.43;9.93;;;4.50;99.90;;;;;;5032910;28;20404;-70
2022/12/06 07:17:47;;;;;;;13.00;9.57;;;4.40;99.90;;;;;;5015254;28;20390;-70
2022/12/06 07:20:13;;;;;;;12.30;8.97;;;4.50;99.90;;;;;;5015363;28;20415;-70
2022/12/06 07:22:39;;;;;;;10.97;8.77;;;4.50;99.90;;;;;;5032025;28;20526;-70
2022/12/06 07:25:05;;;;;;;13.60;8.43;;;4.50;99.90;;;;;;5031926;28;20574;-68
2022/12/06 07:27:37;;;;;;;12.47;8.73;;;4.50;99.90;;;;;;5032605;28;20177;-70
2022/12/06 07:30:06;;;;;;;11.07;8.10;;;4.50;99.90;;;;;;5032155;28;20509;-71
2022/12/06 07:32:35;;;;;;;12.20;8.47;;;4.50;99.90;;;;;;5031985;28;20963;-70
2022/12/06 07:35:01;;;;;;;18.77;9.17;;;4.50;99.90;;;;;;5031537;28;20817;-69
2022/12/06 07:37:27;;;;;;;13.87;8.77;;;4.50;99.90;;;;;;5032467;28;20412;-71
2022/12/06 07:39:53;;;;;;;12.70;8.80;;;4.50;99.90;;;;;;5032081;28;20391;-70
2022/12/06 07:45:06;;;;;;;11.60;8.10;;;4.50;99.90;;;;;;5025743;28;20217;-70
2022/12/06 07:47:36;;;;;;;11.30;7.70;;;4.50;99.90;;;;;;5012292;28;20417;-71
2022/12/06 07:50:02;;;;;;;12.60;8.33;;;4.50;99.90;;;;;;4994237;28;20394;-70
2022/12/06 07:52:35;;;;;;;12.93;9.23;;;4.50;99.90;;;;;;5011772;28;20485;-70
2022/12/06 07:55:02;;;;;;;8.67;7.13;;;4.60;99.90;;;;;;5011440;28;20391;-70
2022/12/06 07:57:27;;;;;;;11.30;7.83;;;4.60;99.90;;;;;;5011950;28;20431;-71
2022/12/06 07:59:54;;;;;;;17.67;10.93;;;4.60;99.90;;;;;;5012013;28;20918;-70
2022/12/06 08:02:22;;;;;;;16.13;8.93;;;4.60;99.90;;;;;;5011340;28;20199;-69
2022/12/06 08:04:47;;;;;;;9.53;7.50;;;4.60;99.90;;;;;;5011760;28;20555;-71
2022/12/06 08:07:13;;;;;;;20.77;10.70;;;4.70;99.90;;;;;;5011637;28;20516;-71
2022/12/06 08:09:39;;;;;;;19.87;11.07;;;4.70;99.90;;;;;;5008691;28;20246;-67
2022/12/06 08:12:05;;;;;;;14.40;8.83;;;4.70;99.90;;;;;;4991556;28;20450;-69
2022/12/06 08:14:31;;;;;;;18.17;9.40;;;4.70;99.90;;;;;;4991802;28;20717;-71
2022/12/06 08:16:56;;;;;;;11.80;6.10;;;4.70;99.90;;;;;;4991944;28;20417;-71
2022/12/06 08:19:22;;;;;;;8.80;6.23;;;4.70;99.90;;;;;;4991545;28;20181;-71
2022/12/06 08:21:48;;;;;;;8.30;6.20;;;4.70;99.90;;;;;;4991661;28;20219;-68
2022/12/06 08:24:13;;;;;;;8.27;6.37;;;4.70;99.90;;;;;;4991749;28;20245;-71
2022/12/06 08:26:39;;;;;;;7.30;6.10;;;4.70;99.90;;;;;;4992619;28;20641;-67
2022/12/06 08:29:04;;;;;;;7.73;6.57;;;4.80;99.90;;;;;;4993134;28;20171;-70
2022/12/06 08:31:30;;;;;;;11.57;6.60;;;4.90;99.90;;;;;;4992501;28;20589;-70
2022/12/06 08:33:57;;;;;;;6.77;6.07;;;4.90;99.90;;;;;;4992083;28;20551;-71
2022/12/06 08:36:23;;;;;;;8.30;6.93;;;4.90;99.90;;;;;;4992533;28;20431;-70
2022/12/06 08:38:51;;;;;;;8.50;6.67;;;4.90;99.90;;;;;;4993041;28;20414;-70
2022/12/06 08:44:12;;;;;;;13.63;6.17;;;4.80;99.90;;;;;;4960517;28;20490;-70
2022/12/06 08:46:38;;;;;;;8.80;7.03;;;4.90;99.90;;;;;;4991754;28;20402;-70
2022/12/06 08:49:04;;;;;;;10.30;6.97;;;4.80;99.90;;;;;;4991497;28;20402;-69
2022/12/06 08:51:31;;;;;;;8.70;7.40;;;4.80;99.90;;;;;;4991591;28;20416;-71
2022/12/06 08:53:57;;;;;;;8.00;6.63;;;4.80;99.90;;;;;;4990847;28;20775;-70
2022/12/06 08:56:23;;;;;;;6.97;6.30;;;4.90;99.90;;;;;;4990830;28;20461;-70
2022/12/06 08:58:49;;;;;;;11.80;7.37;;;4.90;99.90;;;;;;4991433;28;20187;-70
2022/12/06 09:01:24;;;;;;;11.83;7.33;;;4.90;99.90;;;;;;4991454;28;20424;-71
2022/12/06 09:03:49;;;;;;;11.17;7.80;;;4.90;99.90;;;;;;4972741;28;20565;-68
2022/12/06 09:06:16;;;;;;;8.10;6.00;;;4.90;99.90;;;;;;4991722;28;20412;-70
2022/12/06 09:08:41;;;;;;;9.43;7.53;;;4.90;99.90;;;;;;4991270;28;20230;-70
2022/12/06 09:11:07;;;;;;;10.50;7.00;;;5.00;99.90;;;;;;4991534;28;20478;-70
2022/12/06 09:13:35;;;;;;;9.80;8.27;;;5.00;99.90;;;;;;4991546;28;20817;-71
2022/12/06 09:16:05;;;;;;;14.13;8.37;;;5.00;99.90;;;;;;4991100;28;20772;-70
2022/12/06 09:18:31;;;;;;;11.57;7.20;;;5.00;99.90;;;;;;4991166;28;20418;-70
2022/12/06 09:20:56;;;;;;;8.00;7.20;;;5.00;99.90;;;;;;4991076;28;20445;-70
2022/12/06 09:23:22;;;;;;;12.60;7.77;;;5.00;99.90;;;;;;4990466;28;20176;-70
2022/12/06 09:25:47;;;;;;;9.43;7.93;;;5.10;99.90;;;;;;4990948;28;20696;-70
2022/12/06 09:28:13;;;;;;;9.13;7.40;;;5.10;99.90;;;;;;4989995;28;20182;-70
2022/12/06 09:30:38;;;;;;;11.90;9.67;;;5.10;99.90;;;;;;4991051;28;20193;-70
2022/12/06 09:33:04;;;;;;;12.20;8.50;;;5.10;99.90;;;;;;4990234;28;20194;-70
2022/12/06 09:35:29;;;;;;;10.63;8.30;;;5.10;99.90;;;;;;4990953;28;20184;-70
2022/12/06 09:37:56;;;;;;;9.87;8.80;;;5.20;99.90;;;;;;4990367;28;20652;-70
2022/12/06 09:40:31;;;;;;;14.33;9.93;;;5.20;99.90;;;;;;4990660;28;20260;-70
2022/12/06 09:43:14;;;;;;;14.97;10.17;;;5.20;99.90;;;;;;4990086;28;20543;-70
2022/12/06 09:45:54;;;;;;;13.50;10.07;;;5.20;99.90;;;;;;4990397;28;20451;-68
2022/12/06 09:48:46;;;;;;;14.30;11.17;;;5.30;99.90;;;;;;4991008;28;20392;-69
2022/12/06 09:51:29;;;;;;;12.03;9.97;;;5.20;99.90;;;;;;4990815;28;20433;-70
2022/12/06 09:54:23;;;;;;;15.53;10.27;;;5.20;99.90;;;;;;4990048;28;20477;-70
2022/12/06 09:57:23;;;;;;;20.97;13.70;;;5.20;99.90;;;;;;4990444;28;20424;-70
2022/12/06 10:00:04;;;;;;;21.83;12.90;;;5.20;99.90;;;;;;4996124;28;20442;-70
2022/12/06 10:03:07;;;;;;;22.80;13.17;;;5.20;99.90;;;;;;5008873;28;20431;-71
2022/12/06 10:05:59;;;;;;;19.10;11.70;;;5.20;99.90;;;;;;5009332;28;20805;-71
2022/12/06 10:08:56;;;;;;;19.60;13.20;;;5.10;99.90;;;;;;5010041;28;20431;-71
2022/12/06 10:11:37;;;;;;;19.07;11.33;;;5.10;99.90;;;;;;5006226;28;20418;-71
2022/12/06 10:14:34;;;;;;;19.73;10.90;;;5.20;99.90;;;;;;5002704;28;20415;-71
2022/12/06 10:17:27;;;;;;;19.50;11.80;;;5.10;99.90;;;;;;5009783;28;20422;-69
2022/12/06 10:19:59;;;;;;;18.30;11.07;;;5.10;99.90;;;;;;5010335;28;20402;-71
2022/12/06 10:22:30;;;;;;;15.60;11.00;;;5.00;99.90;;;;;;5009284;28;20505;-70
2022/12/06 10:25:42;;;;;;;19.67;11.83;;;5.10;99.90;;;;;;5002101;28;20467;-71
2022/12/06 10:28:12;;;;;;;19.20;11.23;;;5.10;99.90;;;;;;4986057;28;20799;-71
2022/12/06 10:30:49;;;;;;;16.77;10.33;;;5.00;99.90;;;;;;5009469;28;20425;-70
2022/12/06 10:33:46;;;;;;;18.23;11.30;;;5.00;99.90;;;;;;5009416;28;20387;-70
2022/12/06 10:36:19;;;;;;;18.83;11.90;;;5.00;99.90;;;;;;5010035;28;20800;-71
2022/12/06 10:38:54;;;;;;;14.10;9.07;;;5.00;99.90;;;;;;5009819;28;20473;-71
2022/12/06 10:41:31;;;;;;;12.73;10.10;;;5.00;99.90;;;;;;5013083;28;20428;-68
2022/12/06 10:44:15;;;;;;;14.27;9.63;;;5.00;99.90;;;;;;5012329;28;20444;-69
2022/12/06 10:47:03;;;;;;;18.53;10.67;;;5.00;99.90;;;;;;5013573;28;20404;-69
2022/12/06 10:49:47;;;;;;;18.83;10.57;;;5.00;99.90;;;;;;5013646;28;20388;-71
2022/12/06 10:52:27;;;;;;;13.27;8.70;;;5.00;99.90;;;;;;5013046;28;20494;-69
2022/12/06 10:55:00;;;;;;;16.67;9.57;;;5.00;99.90;;;;;;5013268;28;20482;-71
2022/12/06 10:57:42;;;;;;;12.80;8.83;;;4.90;99.90;;;;;;5012642;28;20883;-71
2022/12/06 11:00:23;;;;;;;13.57;8.27;;;5.00;99.90;;;;;;5013163;28;20407;-71
2022/12/06 11:03:02;;;;;;;14.33;9.00;;;5.00;99.90;;;;;;5012607;28;20523;-71
2022/12/06 11:05:27;;;;;;;11.00;8.00;;;5.00;99.90;;;;;;5013062;28;20454;-71
2022/12/06 11:08:02;;;;;;;11.40;8.40;;;4.90;99.90;;;;;;5012746;28;20400;-71
2022/12/06 11:10:32;;;;;;;11.87;8.07;;;5.00;99.90;;;;;;5013412;28;20181;-71
2022/12/06 11:13:12;;;;;;;11.80;8.60;;;5.00;99.90;;;;;;5012417;28;20911;-69
2022/12/06 11:15:41;;;;;;;15.73;9.03;;;4.90;99.90;;;;;;5013398;28;20392;-71
2022/12/06 11:18:13;;;;;;;14.13;8.30;;;4.80;99.90;;;;;;5013036;28;20396;-72
2022/12/06 11:21:03;;;;;;;12.57;7.57;;;4.90;99.90;;;;;;5012878;28;20424;-69
2022/12/06 11:23:44;;;;;;;11.50;7.90;;;5.00;99.90;;;;;;5012015;28;20790;-70
2022/12/06 11:26:22;;;;;;;10.53;6.87;;;5.00;99.90;;;;;;5012760;28;20444;-70
2022/12/06 11:28:59;;;;;;;9.07;6.03;;;5.00;99.90;;;;;;5012630;28;20903;-70
2022/12/06 11:31:37;;;;;;;10.27;6.67;;;5.00;99.90;;;;;;5012476;28;20462;-70
2022/12/06 11:34:05;;;;;;;11.60;5.80;;;5.00;99.90;;;;;;5011246;28;20460;-70
2022/12/06 11:36:31;;;;;;;9.10;6.50;;;5.00;99.90;;;;;;5012246;28;20419;-70
2022/12/06 11:38:58;;;;;;;10.03;6.10;;;5.00;99.90;;;;;;5012253;28;20400;-69
2022/12/06 11:41:29;;;;;;;7.93;5.83;;;5.00;99.90;;;;;;5012197;28;20443;-70
2022/12/06 11:43:57;;;;;;;9.93;6.70;;;5.10;99.90;;;;;;5011005;28;20459;-70
2022/12/06 11:46:23;;;;;;;8.27;6.07;;;5.10;99.90;;;;;;5012471;28;20420;-70
2022/12/06 11:48:49;;;;;;;9.30;6.00;;;5.00;99.90;;;;;;5012293;28;20926;-70
2022/12/06 11:51:23;;;;;;;7.13;5.17;;;5.00;99.90;;;;;;5011564;28;20934;-71
2022/12/06 11:54:01;;;;;;;7.73;5.30;;;5.00;99.90;;;;;;5010544;28;20861;-70
2022/12/06 11:56:45;;;;;;;8.90;5.80;;;5.10;99.90;;;;;;5011052;28;20921;-69
2022/12/06 11:59:27;;;;;;;9.57;6.40;;;5.00;99.90;;;;;;5011190;28;20405;-70
2022/12/06 12:01:59;;;;;;;8.73;6.50;;;5.00;99.90;;;;;;5011835;28;20412;-70
2022/12/06 12:04:37;;;;;;;8.70;5.40;;;5.00;99.90;;;;;;5011164;28;20468;-70
2022/12/06 12:07:09;;;;;;;7.33;4.70;;;4.90;99.90;;;;;;5011889;28;20523;-69
2022/12/06 12:09:45;;;;;;;6.63;4.87;;;4.80;99.90;;;;;;5011633;28;20394;-70
2022/12/06 12:12:17;;;;;;;6.43;4.43;;;4.80;99.90;;;;;;5011573;28;20458;-68
2022/12/06 12:14:49;;;;;;;9.83;5.80;;;4.80;99.90;;;;;;5011111;28;20480;-70
2022/12/06 12:17:21;;;;;;;7.20;5.20;;;4.80;99.90;;;;;;5011592;28;20483;-70
2022/12/06 12:19:57;;;;;;;8.67;5.67;;;4.80;99.90;;;;;;5011507;28;20430;-68
2022/12/06 12:22:28;;;;;;;5.33;4.70;;;4.80;99.90;;;;;;5011443;28;20548;-70
2022/12/06 12:24:59;;;;;;;8.20;5.57;;;4.80;99.90;;;;;;5010457;28;20562;-70
2022/12/06 12:27:44;;;;;;;7.93;5.90;;;4.70;99.90;;;;;;5011682;28;20413;-70
2022/12/06 12:30:22;;;;;;;8.13;6.17;;;4.70;99.90;;;;;;5011592;28;20422;-70
2022/12/06 12:32:50;;;;;;;8.37;6.23;;;4.60;99.90;;;;;;5010622;28;20460;-70
2022/12/06 12:35:24;;;;;;;5.33;4.83;;;4.60;99.90;;;;;;5011438;28;20424;-70
2022/12/06 12:37:54;;;;;;;6.07;5.20;;;4.60;99.90;;;;;;5011220;28;20415;-70
2022/12/06 12:40:29;;;;;;;7.60;6.50;;;4.60;99.90;;;;;;5010778;28;20475;-69
2022/12/06 12:43:03;;;;;;;8.13;6.43;;;4.60;99.90;;;;;;5010813;28;20411;-70
2022/12/06 12:45:29;;;;;;;7.20;5.50;;;4.50;99.90;;;;;;5011280;28;20471;-70
2022/12/06 12:48:20;;;;;;;6.33;5.63;;;4.50;99.90;;;;;;5010733;28;20976;-71
2022/12/06 12:50:53;;;;;;;8.23;5.60;;;4.50;99.90;;;;;;5010943;28;20183;-70
2022/12/06 12:53:40;;;;;;;9.73;6.17;;;4.50;99.90;;;;;;5010491;28;20398;-67
2022/12/06 12:56:12;;;;;;;6.03;5.43;;;4.50;99.90;;;;;;5011081;28;20459;-70
2022/12/06 12:58:37;;;;;;;5.80;4.70;;;4.50;99.90;;;;;;5010676;28;20426;-70
2022/12/06 13:01:33;;;;;;;7.00;5.60;;;4.50;99.90;;;;;;5010919;28;20831;-70
2022/12/06 13:04:06;;;;;;;6.20;4.90;;;4.50;99.90;;;;;;5010117;28;20719;-70
2022/12/06 13:06:37;;;;;;;11.00;6.20;;;4.50;99.90;;;;;;5011062;28;20382;-70
2022/12/06 13:09:04;;;;;;;6.17;5.47;;;4.50;99.90;;;;;;5010331;28;20421;-70
2022/12/06 13:11:34;;;;;;;5.90;4.77;;;4.50;99.90;;;;;;5010991;28;20406;-70
2022/12/06 13:14:02;;;;;;;8.77;6.37;;;4.50;99.90;;;;;;4991821;28;20430;-69
2022/12/06 13:16:32;;;;;;;7.93;6.83;;;4.40;99.90;;;;;;5010773;28;20431;-70
2022/12/06 13:18:58;;;;;;;6.90;6.10;;;4.40;99.90;;;;;;5010694;28;20399;-70
2022/12/06 13:21:28;;;;;;;6.70;5.73;;;4.40;99.90;;;;;;5010556;28;20444;-70
2022/12/06 13:24:12;;;;;;;7.63;6.00;;;4.40;99.90;;;;;;5010069;28;20488;-70
2022/12/06 13:26:51;;;;;;;7.80;5.97;;;4.50;99.90;;;;;;5010917;28;20395;-70
2022/12/06 13:29:23;;;;;;;10.20;5.70;;;4.50;99.90;;;;;;5011955;28;20739;-70
2022/12/06 13:31:50;;;;;;;8.47;5.90;;;4.50;99.90;;;;;;5010117;28;20435;-69
2022/12/06 13:34:25;;;;;;;5.83;5.00;;;4.60;99.90;;;;;;5010096;28;20434;-70
2022/12/06 13:36:51;;;;;;;5.87;5.27;;;4.60;99.90;;;;;;5010386;28;20506;-70
2022/12/06 13:39:32;;;;;;;8.53;6.47;;;4.60;99.90;;;;;;5010125;28;20542;-71
2022/12/06 13:42:17;;;;;;;9.23;7.03;;;4.70;99.90;;;;;;5010399;28;20198;-69
2022/12/06 13:44:49;;;;;;;9.00;5.47;;;4.70;99.90;;;;;;5009869;28;20465;-70
2022/12/06 13:47:27;;;;;;;6.10;5.50;;;4.70;99.90;;;;;;5010517;28;20447;-71
2022/12/06 13:49:53;;;;;;;5.37;4.90;;;4.70;99.90;;;;;;5009560;28;20815;-70
2022/12/06 13:52:40;;;;;;;8.33;5.67;;;4.70;99.90;;;;;;5010445;28;20401;-71
2022/12/06 13:55:24;;;;;;;7.13;5.00;;;4.70;99.90;;;;;;5010178;28;20427;-70
2022/12/06 13:57:58;;;;;;;6.90;6.20;;;4.70;99.90;;;;;;4992977;28;20929;-71
2022/12/06 14:00:48;;;;;;;7.60;5.70;;;4.70;99.90;;;;;;5010500;28;20412;-70
2022/12/06 14:03:16;;;;;;;7.20;6.50;;;4.70;99.90;;;;;;5009395;28;20387;-70
2022/12/06 14:05:57;;;;;;;5.97;5.17;;;4.70;99.90;;;;;;5010004;28;20790;-70
2022/12/06 14:08:30;;;;;;;9.00;5.40;;;4.70;99.90;;;;;;5010209;28;20459;-70
2022/12/06 14:11:26;;;;;;;4.83;4.43;;;4.70;99.90;;;;;;5009906;28;20454;-70
2022/12/06 14:13:55;;;;;;;6.70;4.40;;;4.70;99.90;;;;;;5009353;28;20410;-69
2022/12/06 14:16:31;;;;;;;4.87;4.10;;;4.70;99.90;;;;;;5013797;28;20387;-69
2022/12/06 14:18:57;;;;;;;5.00;3.83;;;4.60;99.90;;;;;;5013905;28;20429;-69
2022/12/06 14:21:29;;;;;;;4.77;4.33;;;4.60;99.90;;;;;;5013684;28;20821;-70
2022/12/06 14:23:55;;;;;;;4.87;4.23;;;4.60;99.90;;;;;;5013174;28;20448;-70
2022/12/06 14:26:26;;;;;;;4.70;4.30;;;4.60;99.90;;;;;;5013898;28;20559;-70
2022/12/06 14:28:54;;;;;;;6.17;5.40;;;4.60;99.90;;;;;;5013740;28;20506;-70
2022/12/06 14:31:34;;;;;;;5.23;4.73;;;4.50;99.90;;;;;;5013021;28;20505;-69
2022/12/06 14:34:00;;;;;;;5.60;4.47;;;4.60;99.90;;;;;;5013007;28;20391;-69
2022/12/06 14:36:33;;;;;;;5.27;4.80;;;4.50;99.90;;;;;;5013765;28;20423;-70
2022/12/06 14:39:16;;;;;;;6.70;5.37;;;4.50;99.90;;;;;;5013187;28;20184;-69
2022/12/06 14:44:38;;;;;;;11.43;6.40;;;4.40;99.90;;;;;;5013129;28;21114;-70
2022/12/06 14:47:05;;;;;;;8.23;6.53;;;4.50;99.90;;;;;;5013356;28;20910;-70
2022/12/06 14:52:19;;;;;;;13.30;6.00;;;4.50;99.90;;;;;;5013697;28;20494;-70
2022/12/06 14:54:45;;;;;;;8.20;6.40;;;4.50;99.90;;;;;;5012996;28;20484;-70
2022/12/06 14:57:24;;;;;;;8.47;5.23;;;4.50;99.90;;;;;;5013019;28;20410;-71
2022/12/06 14:59:55;;;;;;;9.20;6.60;;;4.50;99.90;;;;;;5013099;28;20721;-70
2022/12/06 15:02:26;;;;;;;6.17;5.57;;;4.50;99.90;;;;;;5013032;28;20413;-69
2022/12/06 15:04:52;;;;;;;6.73;5.10;;;4.40;99.90;;;;;;5012533;28;20513;-70
2022/12/06 15:07:36;;;;;;;6.27;5.67;;;4.40;99.90;;;;;;5013273;28;20390;-70